Time;durP1;ratioP1;P1;durP2;ratioP2;P2;SDS_P1;SDS_P2;PMS_P1;PMS_P2;Temp;Humidity;BMP_temperature;BMP_pressure;BME280_temperature;BME280_humidity;BME280_pressure;Samples;Min_cycle;Max_cycle;Signal;HPM_P1;HPM_P2
2024/01/20 00:01:00;;;;;;;40.83;15.30;;;;;;;;;;7371656;19;20003;-74
2024/01/20 00:03:25;;;;;;;44.17;17.77;;;;;;;;;;7369785;19;20025;-73
2024/01/20 00:05:50;;;;;;;42.72;17.00;;;;;;;;;;7371184;19;20157;-73
2024/01/20 00:08:16;;;;;;;41.00;15.27;;;;;;;;;;7370969;19;20362;-73
2024/01/20 00:10:41;;;;;;;37.72;15.20;;;;;;;;;;7371408;19;20003;-73
2024/01/20 00:13:06;;;;;;;44.20;18.40;;;;;;;;;;7391413;19;20002;-73
2024/01/20 00:15:32;;;;;;;54.55;16.08;;;;;;;;;;7366928;19;20018;-73
2024/01/20 00:17:57;;;;;;;36.38;15.88;;;;;;;;;;7371340;19;20371;-73
2024/01/20 00:20:23;;;;;;;45.35;16.92;;;;;;;;;;7371283;19;20602;-74
2024/01/20 00:22:49;;;;;;;53.13;19.02;;;;;;;;;;7370954;19;20411;-73
2024/01/20 00:25:15;;;;;;;50.10;18.52;;;;;;;;;;7392697;19;20026;-74
2024/01/20 00:27:40;;;;;;;45.55;18.70;;;;;;;;;;7369403;19;20034;-74
2024/01/20 00:30:06;;;;;;;41.58;16.73;;;;;;;;;;7370582;19;20007;-74
2024/01/20 00:32:32;;;;;;;43.17;16.67;;;;;;;;;;7370711;19;20017;-74
2024/01/20 00:34:57;;;;;;;48.25;17.88;;;;;;;;;;7370229;19;20013;-73
2024/01/20 00:37:22;;;;;;;41.97;16.35;;;;;;;;;;7391651;19;20037;-73
2024/01/20 00:39:48;;;;;;;45.92;17.25;;;;;;;;;;7369860;19;20007;-73
2024/01/20 00:42:13;;;;;;;42.88;18.38;;;;;;;;;;7370317;19;20478;-73
2024/01/20 00:44:40;;;;;;;41.13;18.15;;;;;;;;;;7374438;19;20074;-73
2024/01/20 00:47:06;;;;;;;42.83;17.48;;;;;;;;;;7373205;19;20081;-74
2024/01/20 00:49:32;;;;;;;50.53;17.23;;;;;;;;;;7393620;19;20020;-74
2024/01/20 00:51:57;;;;;;;44.40;17.38;;;;;;;;;;7369773;19;20074;-74
2024/01/20 00:54:22;;;;;;;58.70;17.90;;;;;;;;;;7366957;19;20358;-73
2024/01/20 00:56:48;;;;;;;47.67;17.10;;;;;;;;;;7368791;19;20007;-74
2024/01/20 00:59:13;;;;;;;47.45;17.27;;;;;;;;;;7368959;19;20110;-74
2024/01/20 01:01:38;;;;;;;39.83;16.50;;;;;;;;;;7391966;19;19998;-74
2024/01/20 01:04:04;;;;;;;48.90;18.25;;;;;;;;;;7367862;19;20648;-74
2024/01/20 01:06:29;;;;;;;41.28;16.67;;;;;;;;;;7368549;19;20021;-74
2024/01/20 01:08:54;;;;;;;40.25;16.52;;;;;;;;;;7368398;19;20476;-74
2024/01/20 01:11:20;;;;;;;46.63;17.48;;;;;;;;;;7371695;19;20018;-74
2024/01/20 01:13:45;;;;;;;38.97;16.48;;;;;;;;;;7371130;19;20003;-74
2024/01/20 01:16:10;;;;;;;40.90;16.25;;;;;;;;;;7393443;19;20003;-74
2024/01/20 01:18:36;;;;;;;43.33;17.30;;;;;;;;;;7368324;19;20011;-74
2024/01/20 01:21:01;;;;;;;42.38;16.00;;;;;;;;;;7368378;19;20013;-74
2024/01/20 01:23:26;;;;;;;40.47;15.80;;;;;;;;;;7368350;19;20037;-73
2024/01/20 01:25:57;;;;;;;33.08;14.70;;;;;;;;;;7367538;19;20082;-73
2024/01/20 01:28:23;;;;;;;35.08;15.85;;;;;;;;;;7390177;19;20002;-73
2024/01/20 01:30:48;;;;;;;41.17;14.88;;;;;;;;;;7369059;19;20550;-74
2024/01/20 01:33:14;;;;;;;41.97;17.02;;;;;;;;;;7365757;19;20003;-74
2024/01/20 01:35:39;;;;;;;44.42;17.48;;;;;;;;;;7368894;19;19999;-74
2024/01/20 01:38:04;;;;;;;41.42;16.05;;;;;;;;;;7368045;19;20023;-74
2024/01/20 01:40:30;;;;;;;44.22;16.50;;;;;;;;;;7390157;19;20460;-74
2024/01/20 01:42:57;;;;;;;35.00;15.82;;;;;;;;;;7367320;19;20019;-74
2024/01/20 01:45:23;;;;;;;34.50;15.18;;;;;;;;;;7372826;19;20014;-74
2024/01/20 01:47:49;;;;;;;52.88;19.63;;;;;;;;;;7371292;19;20025;-74
2024/01/20 01:50:15;;;;;;;44.70;15.93;;;;;;;;;;7371828;19;20013;-74
2024/01/20 01:52:41;;;;;;;48.15;16.85;;;;;;;;;;7372664;19;20081;-74
2024/01/20 01:55:07;;;;;;;50.88;19.75;;;;;;;;;;7389311;19;20002;-74
2024/01/20 01:57:34;;;;;;;42.35;19.42;;;;;;;;;;7365476;19;20092;-74
2024/01/20 02:00:01;;;;;;;38.13;15.90;;;;;;;;;;7368935;19;20270;-74
2024/01/20 02:02:26;;;;;;;41.03;17.58;;;;;;;;;;7370445;19;20294;-74
2024/01/20 02:04:51;;;;;;;47.30;19.17;;;;;;;;;;7368046;19;19999;-74
2024/01/20 02:07:17;;;;;;;49.40;19.60;;;;;;;;;;7392750;19;20158;-74
2024/01/20 02:09:45;;;;;;;38.42;16.63;;;;;;;;;;7373320;19;20099;-73
2024/01/20 02:12:12;;;;;;;43.92;17.15;;;;;;;;;;7368324;19;20036;-73
2024/01/20 02:14:37;;;;;;;40.78;15.75;;;;;;;;;;7368231;19;20043;-74
2024/01/20 02:17:06;;;;;;;37.90;16.60;;;;;;;;;;7369452;19;20014;-73
2024/01/20 02:19:39;;;;;;;37.00;13.95;;;;;;;;;;7392252;19;20032;-73
2024/01/20 02:22:09;;;;;;;37.90;14.82;;;;;;;;;;7369788;19;20361;-73
2024/01/20 02:24:37;;;;;;;37.33;14.07;;;;;;;;;;7370061;19;20017;-73
2024/01/20 02:27:02;;;;;;;32.85;15.32;;;;;;;;;;7369485;19;20002;-74
2024/01/20 02:29:28;;;;;;;38.20;16.27;;;;;;;;;;7368535;19;20111;-74
2024/01/20 02:31:53;;;;;;;36.08;15.05;;;;;;;;;;7369427;19;20341;-74
2024/01/20 02:34:18;;;;;;;40.63;16.27;;;;;;;;;;7389838;19;20468;-73
2024/01/20 02:36:43;;;;;;;43.85;15.32;;;;;;;;;;7368252;19;20017;-73
2024/01/20 02:39:09;;;;;;;51.38;17.75;;;;;;;;;;7367760;19;20014;-72
2024/01/20 02:41:34;;;;;;;41.60;16.25;;;;;;;;;;7368065;19;20011;-73
2024/01/20 02:43:59;;;;;;;40.70;15.68;;;;;;;;;;7367438;19;20000;-73
2024/01/20 02:46:25;;;;;;;41.13;17.25;;;;;;;;;;7389890;19;20006;-73
2024/01/20 02:48:50;;;;;;;39.38;15.98;;;;;;;;;;7364852;19;20010;-73
2024/01/20 02:51:15;;;;;;;32.92;13.52;;;;;;;;;;7368215;19;20010;-73
2024/01/20 02:53:41;;;;;;;36.70;13.70;;;;;;;;;;7368078;19;20035;-73
2024/01/20 02:56:06;;;;;;;40.67;15.20;;;;;;;;;;7369360;19;20010;-73
2024/01/20 02:58:31;;;;;;;37.80;13.75;;;;;;;;;;7387962;19;20003;-72
2024/01/20 03:00:58;;;;;;;45.85;14.05;;;;;;;;;;7366220;19;20015;-73
2024/01/20 03:03:23;;;;;;;31.13;12.85;;;;;;;;;;7364228;19;20011;-73
2024/01/20 03:05:49;;;;;;;30.85;12.43;;;;;;;;;;7366265;19;20029;-74
2024/01/20 03:08:14;;;;;;;29.90;12.38;;;;;;;;;;7365170;19;20006;-74
2024/01/20 03:10:40;;;;;;;33.13;12.90;;;;;;;;;;7379936;19;19999;-74
2024/01/20 03:13:05;;;;;;;38.75;13.00;;;;;;;;;;7377017;19;20001;-74
2024/01/20 03:15:30;;;;;;;28.45;13.05;;;;;;;;;;7365390;19;20011;-73
2024/01/20 03:17:56;;;;;;;31.35;11.00;;;;;;;;;;7370369;19;20034;-73
2024/01/20 03:20:21;;;;;;;32.65;15.00;;;;;;;;;;7372756;19;20022;-73
2024/01/20 03:22:46;;;;;;;33.83;12.30;;;;;;;;;;7373186;19;20077;-74
2024/01/20 03:25:12;;;;;;;42.13;14.73;;;;;;;;;;7395794;19;20037;-73
2024/01/20 03:27:38;;;;;;;29.30;9.82;;;;;;;;;;7372465;19;20527;-73
2024/01/20 03:30:03;;;;;;;32.28;13.52;;;;;;;;;;7372162;19;20019;-73
2024/01/20 03:32:29;;;;;;;30.20;11.95;;;;;;;;;;7373415;19;20010;-74
2024/01/20 03:34:54;;;;;;;33.97;12.85;;;;;;;;;;7372958;19;20001;-74
2024/01/20 03:37:19;;;;;;;31.58;12.18;;;;;;;;;;7395419;19;20006;-75
2024/01/20 03:39:45;;;;;;;31.67;12.35;;;;;;;;;;7374456;19;20143;-75
2024/01/20 03:42:10;;;;;;;32.03;11.82;;;;;;;;;;7373749;19;20006;-75
2024/01/20 03:44:35;;;;;;;32.90;11.80;;;;;;;;;;7372941;19;20035;-74
2024/01/20 03:47:01;;;;;;;35.75;14.20;;;;;;;;;;7374006;19;20011;-75
2024/01/20 03:49:26;;;;;;;39.72;13.10;;;;;;;;;;7394843;19;19999;-74
2024/01/20 03:51:51;;;;;;;41.58;14.18;;;;;;;;;;7372119;19;20006;-75
2024/01/20 03:54:17;;;;;;;37.45;12.75;;;;;;;;;;7372910;19;20107;-74
2024/01/20 03:56:45;;;;;;;42.05;14.85;;;;;;;;;;7371451;19;20049;-75
2024/01/20 03:59:11;;;;;;;35.20;13.63;;;;;;;;;;7368883;19;20457;-74
2024/01/20 04:01:36;;;;;;;33.58;12.50;;;;;;;;;;7391055;19;20019;-74
2024/01/20 04:04:04;;;;;;;33.15;12.20;;;;;;;;;;7365696;19;20506;-74
2024/01/20 04:06:33;;;;;;;29.08;11.68;;;;;;;;;;7369470;19;20010;-73
2024/01/20 04:08:58;;;;;;;27.90;11.63;;;;;;;;;;7374797;19;20038;-74
2024/01/20 04:11:24;;;;;;;28.95;12.38;;;;;;;;;;7379178;19;20002;-73
2024/01/20 04:13:49;;;;;;;29.90;11.30;;;;;;;;;;7375422;19;19998;-73
2024/01/20 04:16:14;;;;;;;30.73;11.30;;;;;;;;;;7394084;19;20019;-73
2024/01/20 04:18:40;;;;;;;22.15;10.32;;;;;;;;;;7369926;19;20006;-73
2024/01/20 04:21:05;;;;;;;24.80;9.98;;;;;;;;;;7370874;19;20021;-73
2024/01/20 04:23:30;;;;;;;30.25;10.75;;;;;;;;;;7366074;19;20010;-74
2024/01/20 04:25:55;;;;;;;20.98;8.18;;;;;;;;;;7371186;19;20102;-73
2024/01/20 04:28:21;;;;;;;30.02;11.13;;;;;;;;;;7388894;19;20010;-74
2024/01/20 04:30:46;;;;;;;29.02;10.15;;;;;;;;;;7370113;19;20014;-73
2024/01/20 04:33:12;;;;;;;25.38;11.07;;;;;;;;;;7368458;19;20007;-73
2024/01/20 04:35:37;;;;;;;29.17;10.38;;;;;;;;;;7370448;19;20010;-73
2024/01/20 04:38:03;;;;;;;25.63;10.30;;;;;;;;;;7368989;19;20014;-73
2024/01/20 04:40:28;;;;;;;32.65;11.90;;;;;;;;;;7391822;19;20002;-74
2024/01/20 04:42:54;;;;;;;35.22;13.20;;;;;;;;;;7368720;19;20013;-73
2024/01/20 04:45:19;;;;;;;45.35;16.15;;;;;;;;;;7371331;19;20010;-73
2024/01/20 04:47:45;;;;;;;30.05;11.27;;;;;;;;;;7367839;19;20006;-73
2024/01/20 04:50:11;;;;;;;26.05;9.52;;;;;;;;;;7369747;19;20013;-73
2024/01/20 04:52:37;;;;;;;31.42;10.68;;;;;;;;;;7390031;19;20536;-73
2024/01/20 04:55:02;;;;;;;34.38;11.95;;;;;;;;;;7369876;19;20089;-73
2024/01/20 04:57:28;;;;;;;26.33;11.23;;;;;;;;;;7368812;19;20021;-73
2024/01/20 04:59:53;;;;;;;25.55;10.18;;;;;;;;;;7369649;19;20019;-73
2024/01/20 05:02:19;;;;;;;24.20;9.07;;;;;;;;;;7368222;19;20053;-73
2024/01/20 05:04:44;;;;;;;33.05;12.50;;;;;;;;;;7367466;19;20006;-73
2024/01/20 05:07:09;;;;;;;28.05;10.48;;;;;;;;;;7390066;19;20496;-73
2024/01/20 05:09:35;;;;;;;22.67;10.15;;;;;;;;;;7367518;19;20006;-73
2024/01/20 05:12:00;;;;;;;26.30;9.60;;;;;;;;;;7369462;19;20350;-73
2024/01/20 05:14:25;;;;;;;25.80;10.45;;;;;;;;;;7368240;19;20006;-73
2024/01/20 05:16:51;;;;;;;26.90;10.50;;;;;;;;;;7368956;19;20527;-73
2024/01/20 05:19:16;;;;;;;30.52;10.50;;;;;;;;;;7389562;19;20013;-73
2024/01/20 05:21:41;;;;;;;34.33;11.23;;;;;;;;;;7369053;19;20010;-73
2024/01/20 05:24:07;;;;;;;35.67;13.13;;;;;;;;;;7369349;19;20003;-73
2024/01/20 05:26:32;;;;;;;30.70;12.70;;;;;;;;;;7369561;19;20007;-73
2024/01/20 05:28:57;;;;;;;31.55;11.50;;;;;;;;;;7368241;19;20018;-73
2024/01/20 05:31:31;;;;;;;28.40;10.73;;;;;;;;;;7391805;19;20003;-74
2024/01/20 05:33:57;;;;;;;24.35;10.00;;;;;;;;;;7366521;19;20514;-73
2024/01/20 05:36:22;;;;;;;22.30;7.97;;;;;;;;;;7367475;19;20002;-73
2024/01/20 05:38:47;;;;;;;30.25;9.88;;;;;;;;;;7367898;19;20023;-73
2024/01/20 05:41:13;;;;;;;33.92;10.48;;;;;;;;;;7367940;19;20023;-73
2024/01/20 05:43:38;;;;;;;26.05;9.65;;;;;;;;;;7389171;19;20553;-73
2024/01/20 05:46:09;;;;;;;26.75;9.82;;;;;;;;;;7368991;19;20042;-73
2024/01/20 05:48:35;;;;;;;29.95;10.68;;;;;;;;;;7368108;19;20387;-73
2024/01/20 05:51:00;;;;;;;31.05;9.88;;;;;;;;;;7369817;19;20002;-73
2024/01/20 05:53:26;;;;;;;32.35;10.98;;;;;;;;;;7374328;19;20011;-73
2024/01/20 05:55:51;;;;;;;21.70;8.43;;;;;;;;;;7375013;19;20003;-74
2024/01/20 05:58:16;;;;;;;29.15;10.32;;;;;;;;;;7396408;19;19998;-75
2024/01/20 06:00:42;;;;;;;28.35;9.85;;;;;;;;;;7370930;19;20017;-74
2024/01/20 06:03:07;;;;;;;28.52;10.55;;;;;;;;;;7369899;19;20015;-74
2024/01/20 06:05:32;;;;;;;24.40;8.90;;;;;;;;;;7369969;19;20027;-74
2024/01/20 06:07:58;;;;;;;25.58;9.73;;;;;;;;;;7367248;19;20010;-74
2024/01/20 06:10:23;;;;;;;32.65;11.02;;;;;;;;;;7388860;19;20006;-74
2024/01/20 06:12:49;;;;;;;27.40;10.05;;;;;;;;;;7366443;19;20006;-74
2024/01/20 06:15:14;;;;;;;29.75;9.85;;;;;;;;;;7367071;19;20010;-74
2024/01/20 06:17:39;;;;;;;33.05;8.70;;;;;;;;;;7364888;19;20086;-73
2024/01/20 06:20:06;;;;;;;27.95;9.68;;;;;;;;;;7367838;19;20010;-74
2024/01/20 06:22:31;;;;;;;28.55;10.15;;;;;;;;;;7388562;19;19998;-73
2024/01/20 06:24:57;;;;;;;34.13;11.73;;;;;;;;;;7366672;19;20773;-74
2024/01/20 06:27:22;;;;;;;29.08;10.98;;;;;;;;;;7365515;19;20010;-74
2024/01/20 06:29:48;;;;;;;30.70;11.75;;;;;;;;;;7366704;19;20453;-74
2024/01/20 06:32:13;;;;;;;27.85;9.93;;;;;;;;;;7366289;19;20007;-74
2024/01/20 06:34:39;;;;;;;28.60;9.40;;;;;;;;;;7387137;19;20002;-74
2024/01/20 06:37:04;;;;;;;21.55;8.10;;;;;;;;;;7367151;19;20051;-74
2024/01/20 06:39:30;;;;;;;33.80;11.27;;;;;;;;;;7366167;19;20026;-74
2024/01/20 06:41:55;;;;;;;31.63;11.30;;;;;;;;;;7365440;19;20548;-73
2024/01/20 06:44:22;;;;;;;53.53;12.93;;;;;;;;;;7365462;19;20022;-73
2024/01/20 06:46:50;;;;;;;33.45;11.40;;;;;;;;;;7365398;19;20022;-74
2024/01/20 06:49:15;;;;;;;24.38;6.82;;;;;;;;;;7388409;19;20002;-74
2024/01/20 06:51:43;;;;;;;34.33;12.93;;;;;;;;;;7364687;19;20004;-74
2024/01/20 06:54:08;;;;;;;49.60;13.23;;;;;;;;;;7366430;19;20006;-74
2024/01/20 06:56:34;;;;;;;35.60;11.68;;;;;;;;;;7366327;19;20092;-75
2024/01/20 06:59:00;;;;;;;73.88;26.23;;;;;;;;;;7365505;19;20012;-74
2024/01/20 07:01:25;;;;;;;38.17;12.50;;;;;;;;;;7387656;19;20127;-74
2024/01/20 07:03:50;;;;;;;35.47;12.23;;;;;;;;;;7363792;19;20009;-74
2024/01/20 07:06:16;;;;;;;48.03;13.32;;;;;;;;;;7366425;19;20010;-73
2024/01/20 07:08:42;;;;;;;34.38;10.95;;;;;;;;;;7365916;19;20007;-73
2024/01/20 07:11:09;;;;;;;49.40;15.45;;;;;;;;;;7365979;19;20013;-74
2024/01/20 07:13:34;;;;;;;44.50;12.88;;;;;;;;;;7386442;19;20293;-73
2024/01/20 07:16:00;;;;;;;43.15;13.40;;;;;;;;;;7365019;19;20488;-74
2024/01/20 07:18:25;;;;;;;37.35;13.45;;;;;;;;;;7349282;19;20010;-75
2024/01/20 07:20:52;;;;;;;33.20;11.38;;;;;;;;;;7357994;19;20010;-74
2024/01/20 07:23:17;;;;;;;49.15;15.90;;;;;;;;;;7358303;19;20505;-74
2024/01/20 07:25:43;;;;;;;42.70;13.93;;;;;;;;;;7368505;19;20066;-72
2024/01/20 07:28:08;;;;;;;40.72;12.85;;;;;;;;;;7377617;19;20020;-73
2024/01/20 07:30:34;;;;;;;44.75;11.98;;;;;;;;;;7363032;19;20012;-74
2024/01/20 07:32:59;;;;;;;39.33;12.38;;;;;;;;;;7367881;19;20010;-73
2024/01/20 07:35:25;;;;;;;41.55;14.05;;;;;;;;;;7369607;19;20498;-75
2024/01/20 07:37:50;;;;;;;50.20;14.02;;;;;;;;;;7364426;19;20002;-76
2024/01/20 07:40:16;;;;;;;43.42;12.85;;;;;;;;;;7383543;19;20003;-74
2024/01/20 07:42:42;;;;;;;39.85;12.55;;;;;;;;;;7361528;19;19998;-74
2024/01/20 07:45:08;;;;;;;42.50;13.30;;;;;;;;;;7361529;19;20011;-73
2024/01/20 07:47:33;;;;;;;39.60;13.15;;;;;;;;;;7358664;19;20019;-73
2024/01/20 07:49:59;;;;;;;49.63;13.95;;;;;;;;;;7350179;19;20008;-73
2024/01/20 07:52:24;;;;;;;41.25;14.13;;;;;;;;;;7382397;19;20003;-74
2024/01/20 07:54:49;;;;;;;43.53;13.85;;;;;;;;;;7361238;19;20003;-75
2024/01/20 07:57:15;;;;;;;38.35;12.73;;;;;;;;;;7360268;19;20035;-76
2024/01/20 07:59:40;;;;;;;40.17;13.07;;;;;;;;;;7361734;19;20383;-73
2024/01/20 08:02:05;;;;;;;45.10;14.10;;;;;;;;;;7360359;19;20006;-72
2024/01/20 08:04:31;;;;;;;32.42;11.55;;;;;;;;;;7386601;19;20723;-73
2024/01/20 08:06:56;;;;;;;40.10;13.40;;;;;;;;;;7365825;19;20010;-72
2024/01/20 08:09:21;;;;;;;38.63;12.82;;;;;;;;;;7368273;19;20074;-75
2024/01/20 08:11:47;;;;;;;28.58;11.40;;;;;;;;;;7371592;19;20007;-73
2024/01/20 08:14:12;;;;;;;33.10;12.68;;;;;;;;;;7369966;19;20033;-74
2024/01/20 08:16:37;;;;;;;34.70;11.20;;;;;;;;;;7394559;19;20002;-73
2024/01/20 08:19:03;;;;;;;33.08;13.02;;;;;;;;;;7370227;19;20086;-74
2024/01/20 08:21:29;;;;;;;37.75;14.30;;;;;;;;;;7370714;19;20035;-73
2024/01/20 08:23:55;;;;;;;34.65;11.93;;;;;;;;;;7374162;19;20003;-73
2024/01/20 08:26:20;;;;;;;35.28;13.15;;;;;;;;;;7372438;19;20525;-73
2024/01/20 08:28:45;;;;;;;32.03;12.60;;;;;;;;;;7373048;19;20021;-73
2024/01/20 08:31:11;;;;;;;35.00;13.18;;;;;;;;;;7396013;19;20007;-73
2024/01/20 08:33:36;;;;;;;41.03;12.57;;;;;;;;;;7371609;19;20007;-76
2024/01/20 08:36:01;;;;;;;32.47;11.80;;;;;;;;;;7373769;19;20007;-74
2024/01/20 08:38:27;;;;;;;33.75;11.43;;;;;;;;;;7373428;19;20025;-73
2024/01/20 08:40:52;;;;;;;68.28;26.58;;;;;;;;;;7371992;19;20003;-73
2024/01/20 08:43:17;;;;;;;74.93;28.98;;;;;;;;;;7392396;19;20464;-72
2024/01/20 08:45:43;;;;;;;38.70;13.40;;;;;;;;;;7373772;19;20014;-72
2024/01/20 08:48:08;;;;;;;35.80;13.20;;;;;;;;;;7372025;19;20531;-74
2024/01/20 08:50:34;;;;;;;35.30;13.00;;;;;;;;;;7371476;19;20010;-73
2024/01/20 08:52:59;;;;;;;34.10;12.60;;;;;;;;;;7371777;19;20501;-73
2024/01/20 08:55:25;;;;;;;36.28;12.32;;;;;;;;;;7393264;19;20023;-74
2024/01/20 08:57:50;;;;;;;36.45;13.70;;;;;;;;;;7369575;19;19998;-74
2024/01/20 09:00:16;;;;;;;38.50;14.07;;;;;;;;;;7371566;19;20003;-75
2024/01/20 09:02:43;;;;;;;38.17;14.50;;;;;;;;;;7371956;19;20002;-71
2024/01/20 09:05:08;;;;;;;43.42;16.30;;;;;;;;;;7371138;19;20062;-74
2024/01/20 09:07:33;;;;;;;41.55;13.95;;;;;;;;;;7391544;19;20010;-73
2024/01/20 09:10:00;;;;;;;39.95;13.75;;;;;;;;;;7370858;19;19998;-74
2024/01/20 09:12:25;;;;;;;38.67;15.30;;;;;;;;;;7369570;19;20010;-74
2024/01/20 09:14:50;;;;;;;43.70;15.38;;;;;;;;;;7366787;19;20014;-73
2024/01/20 09:17:16;;;;;;;42.67;14.95;;;;;;;;;;7368071;19;20007;-73
2024/01/20 09:19:41;;;;;;;40.25;15.95;;;;;;;;;;7370692;19;20010;-73
2024/01/20 09:22:06;;;;;;;37.38;15.15;;;;;;;;;;7386174;19;20022;-74
2024/01/20 09:24:32;;;;;;;39.13;14.88;;;;;;;;;;7369260;19;20009;-74
2024/01/20 09:26:57;;;;;;;40.58;13.82;;;;;;;;;;7369293;19;20014;-73
2024/01/20 09:29:23;;;;;;;35.20;13.35;;;;;;;;;;7366756;19;20013;-74
2024/01/20 09:31:48;;;;;;;39.78;14.07;;;;;;;;;;7368870;19;20023;-74
2024/01/20 09:34:13;;;;;;;37.38;14.20;;;;;;;;;;7388617;19;20002;-74
2024/01/20 09:36:39;;;;;;;62.90;15.38;;;;;;;;;;7368924;19;20002;-75
2024/01/20 09:39:04;;;;;;;39.50;15.30;;;;;;;;;;7368851;19;20002;-73
2024/01/20 09:41:29;;;;;;;40.58;15.60;;;;;;;;;;7368689;19;20002;-74
2024/01/20 09:43:55;;;;;;;42.72;16.63;;;;;;;;;;7367492;19;20443;-73
2024/01/20 09:46:21;;;;;;;41.60;13.82;;;;;;;;;;7389166;19;20016;-73
2024/01/20 09:48:50;;;;;;;42.47;15.60;;;;;;;;;;7366834;19;20730;-73
2024/01/20 09:51:17;;;;;;;38.72;14.20;;;;;;;;;;7368957;19;20002;-74
2024/01/20 09:53:43;;;;;;;44.15;15.35;;;;;;;;;;7367930;19;20480;-75
2024/01/20 09:56:08;;;;;;;42.20;16.77;;;;;;;;;;7367090;19;20027;-73
2024/01/20 09:58:35;;;;;;;41.33;15.52;;;;;;;;;;7393175;19;20398;-74
2024/01/20 10:01:01;;;;;;;42.92;15.52;;;;;;;;;;7369315;19;20003;-74
2024/01/20 10:03:28;;;;;;;38.88;15.68;;;;;;;;;;7369813;19;20003;-74
2024/01/20 10:05:53;;;;;;;36.63;14.85;;;;;;;;;;7373749;19;20031;-76
2024/01/20 10:08:19;;;;;;;37.75;15.55;;;;;;;;;;7373601;19;20433;-73
2024/01/20 10:10:44;;;;;;;43.85;15.25;;;;;;;;;;7371595;19;20074;-75
2024/01/20 10:13:09;;;;;;;42.42;14.75;;;;;;;;;;7389240;19;20002;-75
2024/01/20 10:15:36;;;;;;;49.42;17.65;;;;;;;;;;7367688;19;20074;-74
2024/01/20 10:18:08;;;;;;;46.38;15.85;;;;;;;;;;7362321;19;20007;-74
2024/01/20 10:20:35;;;;;;;39.95;15.50;;;;;;;;;;7367815;19;20681;-75
2024/01/20 10:23:02;;;;;;;44.78;16.13;;;;;;;;;;7370821;19;20361;-74
2024/01/20 10:25:28;;;;;;;38.67;14.45;;;;;;;;;;7396210;19;20348;-75
2024/01/20 10:27:54;;;;;;;45.33;14.65;;;;;;;;;;7374944;19;20054;-74
2024/01/20 10:30:20;;;;;;;43.35;16.15;;;;;;;;;;7371550;19;20007;-73
2024/01/20 10:32:47;;;;;;;51.80;15.90;;;;;;;;;;7368392;19;20484;-73
2024/01/20 10:35:13;;;;;;;37.58;14.68;;;;;;;;;;7362113;19;20043;-73
2024/01/20 10:37:40;;;;;;;41.63;14.05;;;;;;;;;;7386033;19;20007;-74
2024/01/20 10:40:09;;;;;;;32.72;13.45;;;;;;;;;;7361446;19;20022;-72
2024/01/20 10:42:41;;;;;;;53.83;21.23;;;;;;;;;;7357690;19;20018;-72
2024/01/20 10:45:11;;;;;;;50.03;21.08;;;;;;;;;;7360402;19;20527;-73
2024/01/20 10:47:39;;;;;;;35.72;14.35;;;;;;;;;;7360913;19;20018;-73
2024/01/20 10:50:07;;;;;;;38.33;14.93;;;;;;;;;;7366452;19;20011;-73
2024/01/20 10:52:36;;;;;;;38.17;14.48;;;;;;;;;;7388807;19;20006;-73
2024/01/20 10:55:02;;;;;;;40.75;14.82;;;;;;;;;;7367881;19;20006;-72
2024/01/20 10:57:28;;;;;;;34.40;13.07;;;;;;;;;;7369262;19;20010;-73
2024/01/20 10:59:55;;;;;;;41.97;14.93;;;;;;;;;;7366385;19;20089;-72
2024/01/20 11:02:22;;;;;;;42.00;15.68;;;;;;;;;;7374092;19;20032;-73
2024/01/20 11:04:47;;;;;;;36.78;14.63;;;;;;;;;;7360440;19;20338;-73
2024/01/20 11:07:13;;;;;;;39.30;14.82;;;;;;;;;;7383132;19;20018;-73
2024/01/20 11:09:39;;;;;;;43.75;15.20;;;;;;;;;;7364600;19;20003;-74
2024/01/20 11:12:09;;;;;;;36.75;14.38;;;;;;;;;;7362677;19;20440;-74
2024/01/20 11:14:35;;;;;;;39.15;14.65;;;;;;;;;;7362040;19;20390;-73
2024/01/20 11:17:11;;;;;;;39.30;14.60;;;;;;;;;;7365582;19;19999;-73
2024/01/20 11:19:36;;;;;;;39.20;15.30;;;;;;;;;;7388402;19;20014;-74
2024/01/20 11:22:02;;;;;;;44.08;16.25;;;;;;;;;;7365818;19;20010;-73
2024/01/20 11:24:42;;;;;;;44.10;17.17;;;;;;;;;;7365997;19;20022;-74
2024/01/20 11:27:07;;;;;;;44.78;16.77;;;;;;;;;;7365834;19;20449;-73
2024/01/20 11:29:33;;;;;;;41.85;15.68;;;;;;;;;;7366146;19;20142;-73
2024/01/20 11:31:58;;;;;;;45.67;16.77;;;;;;;;;;7366498;19;20089;-73
2024/01/20 11:34:24;;;;;;;37.03;15.65;;;;;;;;;;7385772;19;20357;-73
2024/01/20 11:36:49;;;;;;;40.95;15.82;;;;;;;;;;7366365;19;20002;-73
2024/01/20 11:39:17;;;;;;;63.13;24.52;;;;;;;;;;7372004;19;20497;-74
2024/01/20 11:41:42;;;;;;;44.40;16.77;;;;;;;;;;7375338;19;20006;-74
2024/01/20 11:44:08;;;;;;;42.28;16.05;;;;;;;;;;7373260;19;20010;-72
2024/01/20 11:46:33;;;;;;;40.25;15.63;;;;;;;;;;7395307;19;20490;-73
2024/01/20 11:48:58;;;;;;;37.40;16.05;;;;;;;;;;7371846;19;20013;-75
2024/01/20 11:51:24;;;;;;;38.83;15.95;;;;;;;;;;7373412;19;20007;-73
2024/01/20 11:53:50;;;;;;;37.22;15.38;;;;;;;;;;7372108;19;20006;-74
2024/01/20 11:56:16;;;;;;;35.22;14.93;;;;;;;;;;7372613;19;20725;-75
2024/01/20 11:58:42;;;;;;;34.33;14.68;;;;;;;;;;7372699;19;20003;-75
2024/01/20 12:01:07;;;;;;;36.75;15.68;;;;;;;;;;7394489;19;20005;-73
2024/01/20 12:03:33;;;;;;;35.53;15.07;;;;;;;;;;7370568;19;20007;-73
2024/01/20 12:06:16;;;;;;;35.83;15.57;;;;;;;;;;7373705;19;20020;-74
2024/01/20 12:08:42;;;;;;;40.38;15.60;;;;;;;;;;7374013;19;20018;-73
2024/01/20 12:11:07;;;;;;;42.90;17.40;;;;;;;;;;7381188;19;20038;-73
2024/01/20 12:13:34;;;;;;;37.28;16.05;;;;;;;;;;7393961;19;20486;-73
2024/01/20 12:16:00;;;;;;;36.38;15.25;;;;;;;;;;7372560;19;20014;-72
2024/01/20 12:18:26;;;;;;;34.20;15.80;;;;;;;;;;7369887;19;20484;-73
2024/01/20 12:20:51;;;;;;;37.05;15.75;;;;;;;;;;7372308;19;20047;-75
2024/01/20 12:23:19;;;;;;;39.17;16.10;;;;;;;;;;7372272;19;20026;-73
2024/01/20 12:25:44;;;;;;;36.53;16.25;;;;;;;;;;7372226;19;20019;-73
2024/01/20 12:28:09;;;;;;;40.80;16.75;;;;;;;;;;7393021;19;19999;-73
2024/01/20 12:30:34;;;;;;;38.88;16.02;;;;;;;;;;7370981;19;20611;-74
2024/01/20 12:33:00;;;;;;;37.50;16.65;;;;;;;;;;7369609;19;20010;-74
2024/01/20 12:35:25;;;;;;;31.13;14.85;;;;;;;;;;7372056;19;20013;-73
2024/01/20 12:37:50;;;;;;;35.42;15.40;;;;;;;;;;7372239;19;19999;-73
2024/01/20 12:40:16;;;;;;;40.60;17.20;;;;;;;;;;7393407;19;20003;-73
2024/01/20 12:42:41;;;;;;;39.40;16.38;;;;;;;;;;7370419;19;20904;-74
2024/01/20 12:45:08;;;;;;;37.92;17.17;;;;;;;;;;7370805;19;20528;-74
2024/01/20 12:47:33;;;;;;;39.08;17.73;;;;;;;;;;7369645;19;20002;-75
2024/01/20 12:49:59;;;;;;;39.20;16.63;;;;;;;;;;7368132;19;20011;-73
2024/01/20 12:52:26;;;;;;;37.38;16.85;;;;;;;;;;7392782;19;20003;-74
2024/01/20 12:54:53;;;;;;;38.33;17.23;;;;;;;;;;7370705;19;20006;-74
2024/01/20 12:57:19;;;;;;;37.28;16.92;;;;;;;;;;7369338;19;20107;-73
2024/01/20 12:59:45;;;;;;;37.45;16.40;;;;;;;;;;7372090;19;20066;-75
2024/01/20 13:02:11;;;;;;;37.38;16.55;;;;;;;;;;7370678;19;20030;-73
2024/01/20 13:04:36;;;;;;;37.17;16.60;;;;;;;;;;7390023;19;20002;-73
2024/01/20 13:07:02;;;;;;;43.03;18.27;;;;;;;;;;7370342;19;20010;-73
2024/01/20 13:09:27;;;;;;;36.75;17.15;;;;;;;;;;7369628;19;20062;-73
2024/01/20 13:11:52;;;;;;;42.95;17.67;;;;;;;;;;7369780;19;20125;-74
2024/01/20 13:14:18;;;;;;;60.05;23.23;;;;;;;;;;7368964;19;20450;-74
2024/01/20 13:16:43;;;;;;;47.28;18.80;;;;;;;;;;7371579;19;20011;-74
2024/01/20 13:19:08;;;;;;;49.88;20.25;;;;;;;;;;7390279;19;20009;-75
2024/01/20 13:21:34;;;;;;;49.35;19.17;;;;;;;;;;7371626;19;20010;-73
2024/01/20 13:23:59;;;;;;;45.13;18.02;;;;;;;;;;7371080;19;20011;-72
2024/01/20 13:26:25;;;;;;;46.28;18.88;;;;;;;;;;7373527;19;20461;-74
2024/01/20 13:28:50;;;;;;;48.00;19.98;;;;;;;;;;7370347;19;20010;-73
2024/01/20 13:31:16;;;;;;;47.45;20.75;;;;;;;;;;7392537;19;20062;-75
2024/01/20 13:33:42;;;;;;;55.35;20.00;;;;;;;;;;7367260;19;20010;-74
2024/01/20 13:36:07;;;;;;;51.13;19.67;;;;;;;;;;7369097;19;20021;-73
2024/01/20 13:38:32;;;;;;;51.47;21.02;;;;;;;;;;7369563;19;20026;-74
2024/01/20 13:40:58;;;;;;;54.45;20.15;;;;;;;;;;7369968;19;20030;-73
2024/01/20 13:43:23;;;;;;;48.72;18.90;;;;;;;;;;7391498;19;20027;-74
2024/01/20 13:45:48;;;;;;;42.25;17.80;;;;;;;;;;7374470;19;20010;-73
2024/01/20 13:48:14;;;;;;;44.05;17.92;;;;;;;;;;7373190;19;20010;-73
2024/01/20 13:50:39;;;;;;;43.55;18.98;;;;;;;;;;7368585;19;20022;-74
2024/01/20 13:53:05;;;;;;;43.78;19.75;;;;;;;;;;7369270;19;20010;-75
2024/01/20 13:55:30;;;;;;;51.08;20.17;;;;;;;;;;7390906;19;20515;-74
2024/01/20 13:57:55;;;;;;;48.95;21.25;;;;;;;;;;7368183;19;20476;-74
2024/01/20 14:00:21;;;;;;;41.88;18.65;;;;;;;;;;7367556;19;20014;-74
2024/01/20 14:02:47;;;;;;;47.33;19.27;;;;;;;;;;7368649;19;20009;-74
2024/01/20 14:05:13;;;;;;;40.38;16.88;;;;;;;;;;7368623;19;20006;-75
2024/01/20 14:07:38;;;;;;;39.20;16.60;;;;;;;;;;7389507;19;20027;-75
2024/01/20 14:10:05;;;;;;;38.53;17.73;;;;;;;;;;7369191;19;19999;-73